createdAt,value
2023-03-29T00:00:14.739Z,6.40
2023-03-29T00:04:21.682Z,6.40
2023-03-29T00:08:29.686Z,6.40
2023-03-29T00:12:38.184Z,6.40
2023-03-29T00:16:46.618Z,6.40
2023-03-29T00:20:57.267Z,6.40
2023-03-29T00:25:04.706Z,6.40
2023-03-29T00:29:11.593Z,6.50
2023-03-29T00:33:20.438Z,6.50
2023-03-29T00:37:29.919Z,6.50
2023-03-29T00:41:36.662Z,6.50
2023-03-29T00:45:43.329Z,6.50
2023-03-29T00:49:50.247Z,6.50
2023-03-29T00:54:01.543Z,6.50
2023-03-29T00:58:10.028Z,6.50
2023-03-29T01:02:22.110Z,6.50
2023-03-29T01:06:31.344Z,6.50
2023-03-29T01:11:28.855Z,6.50
2023-03-29T01:15:41.036Z,6.60
2023-03-29T01:20:00.003Z,6.50
2023-03-29T01:24:43.470Z,6.50
2023-03-29T01:28:55.322Z,6.50
2023-03-29T01:33:24.773Z,6.50
2023-03-29T01:37:39.365Z,6.60
2023-03-29T01:42:24.219Z,6.60
2023-03-29T01:46:44.334Z,6.60
2023-03-29T01:50:54.151Z,6.60
2023-03-29T01:55:05.641Z,6.60
2023-03-29T01:59:17.664Z,6.60
2023-03-29T02:03:28.173Z,6.60
2023-03-29T02:07:38.095Z,6.70
2023-03-29T02:11:45.367Z,6.60
2023-03-29T02:15:52.089Z,6.70
2023-03-29T02:20:14.375Z,6.70
2023-03-29T02:24:23.530Z,6.80
2023-03-29T02:28:31.168Z,6.80
2023-03-29T02:32:43.623Z,6.80
2023-03-29T02:37:00.051Z,6.80
2023-03-29T02:41:08.187Z,6.90
2023-03-29T02:45:17.212Z,6.90
2023-03-29T02:49:24.434Z,6.90
2023-03-29T02:53:39.057Z,6.90
2023-03-29T02:57:45.771Z,6.90
2023-03-29T03:01:53.452Z,6.90
2023-03-29T03:06:01.626Z,6.90
2023-03-29T03:10:10.329Z,7.00
2023-03-29T03:14:18.815Z,7.00
2023-03-29T03:18:25.606Z,7.00
2023-03-29T03:22:32.293Z,7.00
2023-03-29T03:26:39.014Z,6.90
2023-03-29T03:30:45.670Z,7.00
2023-03-29T03:34:52.356Z,6.90
2023-03-29T03:38:58.993Z,6.90
2023-03-29T03:43:05.741Z,6.80
2023-03-29T03:47:14.560Z,6.80
2023-03-29T03:51:21.538Z,6.80
2023-03-29T03:55:29.977Z,6.80
2023-03-29T03:59:36.969Z,6.80
2023-03-29T04:03:43.763Z,6.90
2023-03-29T04:07:50.927Z,6.90
2023-03-29T04:11:58.388Z,6.80
2023-03-29T04:16:05.584Z,6.90
2023-03-29T04:20:12.858Z,6.90
2023-03-29T04:24:19.619Z,6.90
2023-03-29T04:28:26.316Z,6.90
2023-03-29T04:32:33.446Z,7.20
2023-03-29T04:36:40.862Z,6.90
2023-03-29T04:40:48.462Z,6.90
2023-03-29T04:44:55.191Z,6.90
2023-03-29T04:49:02.793Z,7.00
2023-03-29T04:53:09.434Z,7.00
2023-03-29T04:57:17.021Z,7.00
2023-03-29T05:01:23.746Z,7.00
2023-03-29T05:05:31.332Z,7.00
2023-03-29T05:09:38.509Z,7.00
2023-03-29T05:13:45.444Z,7.00
2023-03-29T05:17:52.281Z,7.10
2023-03-29T05:21:59.084Z,7.10
2023-03-29T05:26:09.858Z,7.10
2023-03-29T05:30:16.709Z,7.20
2023-03-29T05:34:23.351Z,7.10
2023-03-29T05:38:30.204Z,7.20
2023-03-29T05:42:40.104Z,7.20
2023-03-29T05:46:47.061Z,7.20
2023-03-29T05:50:55.545Z,7.20
2023-03-29T05:55:06.449Z,7.30
2023-03-29T05:59:13.880Z,7.30
2023-03-29T06:03:25.378Z,7.50
2023-03-29T06:07:32.278Z,7.40
2023-03-29T06:11:39.297Z,7.30
2023-03-29T06:15:46.006Z,7.60
2023-03-29T06:19:53.452Z,7.60
2023-03-29T06:24:00.304Z,6.80
2023-03-29T06:28:07.658Z,7.70
2023-03-29T06:32:14.804Z,7.80
2023-03-29T06:36:21.713Z,7.80
2023-03-29T06:40:28.596Z,7.90
2023-03-29T06:44:36.217Z,8.00
2023-03-29T06:48:42.932Z,8.10
2023-03-29T06:52:49.965Z,8.10
2023-03-29T06:56:57.825Z,8.10
2023-03-29T07:01:07.113Z,8.20
2023-03-29T07:05:14.613Z,8.30
2023-03-29T07:09:21.406Z,8.40
2023-03-29T07:13:28.084Z,8.50
2023-03-29T07:17:34.907Z,8.60
2023-03-29T07:21:41.612Z,8.80
2023-03-29T07:25:48.498Z,9.00
2023-03-29T07:29:56.876Z,9.10
2023-03-29T07:34:05.440Z,9.20
2023-03-29T07:38:12.135Z,9.30
2023-03-29T07:42:18.811Z,9.50
2023-03-29T07:46:25.536Z,9.70
2023-03-29T07:50:32.746Z,9.90
2023-03-29T07:54:39.432Z,10.00
2023-03-29T07:58:46.567Z,10.20
2023-03-29T08:02:53.386Z,10.20
2023-03-29T08:07:00.090Z,10.50
2023-03-29T08:11:10.032Z,10.80
2023-03-29T08:15:17.021Z,11.00
2023-03-29T08:19:23.666Z,11.10
2023-03-29T08:23:30.394Z,11.40
2023-03-29T08:27:37.641Z,11.50
2023-03-29T08:31:44.507Z,11.60
2023-03-29T08:35:51.459Z,10.50
2023-03-29T08:39:58.425Z,11.60
2023-03-29T08:44:29.773Z,11.70
2023-03-29T08:48:47.246Z,11.60
2023-03-29T08:52:58.990Z,11.70
2023-03-29T08:57:14.106Z,11.80
2023-03-29T09:01:22.314Z,11.80
2023-03-29T09:05:44.278Z,12.00
2023-03-29T09:09:50.973Z,12.20
2023-03-29T09:14:29.087Z,12.40
2023-03-29T09:18:50.918Z,12.40
2023-03-29T09:23:22.334Z,12.40
2023-03-29T09:27:48.190Z,12.40
2023-03-29T09:31:56.261Z,12.30
2023-03-29T09:36:15.369Z,12.50
2023-03-29T09:40:31.361Z,12.50
2023-03-29T09:44:44.248Z,12.50
2023-03-29T09:48:52.421Z,12.50
2023-03-29T09:52:59.544Z,12.50
2023-03-29T09:57:07.049Z,12.60
2023-03-29T10:01:20.265Z,12.60
2023-03-29T10:05:30.866Z,12.80
2023-03-29T10:09:38.207Z,13.10
2023-03-29T10:13:50.230Z,13.50
2023-03-29T10:18:03.505Z,14.50
2023-03-29T10:22:27.167Z,14.10
2023-03-29T10:26:36.177Z,14.70
2023-03-29T10:30:45.792Z,14.90
2023-03-29T10:34:53.716Z,15.30
2023-03-29T10:39:05.749Z,15.30
2023-03-29T10:43:14.711Z,15.40
2023-03-29T10:47:22.290Z,15.20
2023-03-29T10:51:32.324Z,15.10
2023-03-29T10:55:54.349Z,15.00
2023-03-29T11:00:11.095Z,15.20
2023-03-29T11:04:25.337Z,15.30
2023-03-29T11:08:37.812Z,15.50
2023-03-29T11:13:14.286Z,15.70
2023-03-29T11:17:47.142Z,15.70
2023-03-29T11:21:59.907Z,15.60
2023-03-29T11:26:18.779Z,15.40
2023-03-29T11:30:29.072Z,15.30
2023-03-29T11:34:57.804Z,15.10
2023-03-29T11:39:34.001Z,15.50
2023-03-29T11:43:50.894Z,15.60
2023-03-29T11:47:59.225Z,15.70
2023-03-29T11:52:27.607Z,15.80
2023-03-29T11:56:46.784Z,16.00
2023-03-29T12:01:05.491Z,15.90
2023-03-29T12:05:15.998Z,16.10
2023-03-29T12:09:29.872Z,16.30
2023-03-29T12:13:49.492Z,16.50
2023-03-29T12:18:16.057Z,16.20
2023-03-29T12:22:22.994Z,15.70
2023-03-29T12:27:08.276Z,15.30
2023-03-29T12:31:53.134Z,14.80
2023-03-29T12:36:12.465Z,14.40
2023-03-29T12:40:22.379Z,14.30
2023-03-29T12:44:33.041Z,14.20
2023-03-29T12:48:41.545Z,14.20
2023-03-29T12:52:48.353Z,14.30
2023-03-29T12:56:58.289Z,14.50
2023-03-29T13:01:29.597Z,14.60
2023-03-29T13:05:36.807Z,14.70
2023-03-29T13:09:56.987Z,14.70
2023-03-29T13:14:14.565Z,14.50
2023-03-29T13:18:45.914Z,14.30
2023-03-29T13:23:21.254Z,14.10
2023-03-29T13:27:49.702Z,14.10
2023-03-29T13:32:18.608Z,13.90
2023-03-29T13:36:53.725Z,13.80
2023-03-29T13:41:05.377Z,13.60
2023-03-29T13:45:32.291Z,13.70
2023-03-29T13:49:42.420Z,14.00
2023-03-29T13:54:15.613Z,14.00
2023-03-29T13:58:41.283Z,14.10
2023-03-29T14:02:51.610Z,14.10
2023-03-29T14:06:59.377Z,14.20
2023-03-29T14:11:08.155Z,14.40
2023-03-29T14:15:22.744Z,14.70
2023-03-29T14:19:37.771Z,15.00
2023-03-29T14:23:47.389Z,15.20
2023-03-29T14:27:54.381Z,15.10
2023-03-29T14:32:16.551Z,14.80
2023-03-29T14:36:25.160Z,14.60
2023-03-29T14:40:32.734Z,14.50
2023-03-29T14:44:39.769Z,14.30
2023-03-29T14:48:47.025Z,14.30
2023-03-29T14:52:54.872Z,14.30
2023-03-29T14:57:06.504Z,14.30
2023-03-29T15:01:18.795Z,14.30
2023-03-29T15:05:50.506Z,14.30
2023-03-29T15:09:58.604Z,14.30
2023-03-29T15:14:08.754Z,14.30
2023-03-29T15:18:17.142Z,14.40
2023-03-29T15:22:23.913Z,14.50
2023-03-29T15:26:36.625Z,14.60
2023-03-29T15:30:49.464Z,14.70
2023-03-29T15:35:03.530Z,14.70
2023-03-29T15:39:15.369Z,14.70
2023-03-29T15:43:22.781Z,14.60
2023-03-29T15:47:29.596Z,14.60
2023-03-29T15:51:36.301Z,14.50
2023-03-29T15:55:49.168Z,14.40
2023-03-29T15:59:56.421Z,14.50
2023-03-29T16:04:06.906Z,14.50
2023-03-29T16:08:14.137Z,14.50
2023-03-29T16:12:21.128Z,14.50
2023-03-29T16:16:27.795Z,14.50
2023-03-29T16:20:34.484Z,14.40
2023-03-29T16:24:41.195Z,14.40
2023-03-29T16:28:47.864Z,14.40
2023-03-29T16:32:54.535Z,14.30
2023-03-29T16:37:01.472Z,14.20
2023-03-29T16:41:10.509Z,15.10
2023-03-29T16:45:18.748Z,14.10
2023-03-29T16:49:25.485Z,14.20
2023-03-29T16:53:32.140Z,14.30
2023-03-29T16:57:42.587Z,14.20
2023-03-29T17:01:49.716Z,14.20
2023-03-29T17:05:58.038Z,14.10
2023-03-29T17:10:06.761Z,14.00
2023-03-29T17:14:13.405Z,14.00
2023-03-29T17:18:21.170Z,13.90
2023-03-29T17:22:27.818Z,13.90
2023-03-29T17:26:34.444Z,13.80
2023-03-29T17:30:41.124Z,13.70
2023-03-29T17:34:48.310Z,13.60
2023-03-29T17:38:55.572Z,13.60
2023-03-29T17:43:02.304Z,13.60
2023-03-29T17:47:09.110Z,13.60
2023-03-29T17:51:19.932Z,13.50
2023-03-29T17:55:27.417Z,13.40
2023-03-29T17:59:34.139Z,13.40
2023-03-29T18:03:41.771Z,13.30
2023-03-29T18:07:48.473Z,13.30
2023-03-29T18:11:55.154Z,13.30
2023-03-29T18:16:02.353Z,13.10
2023-03-29T18:20:11.655Z,13.10
2023-03-29T18:24:18.822Z,13.00
2023-03-29T18:28:25.938Z,13.00
2023-03-29T18:32:33.096Z,13.00
2023-03-29T18:36:39.933Z,13.10
2023-03-29T18:40:47.540Z,13.00
2023-03-29T18:44:54.244Z,13.00
2023-03-29T18:49:02.718Z,13.00
2023-03-29T18:53:09.362Z,13.00
2023-03-29T18:57:16.462Z,13.00
2023-03-29T19:01:23.257Z,12.90
2023-03-29T19:05:30.285Z,12.80
2023-03-29T19:09:37.044Z,12.70
2023-03-29T19:13:46.248Z,12.60
2023-03-29T19:17:53.069Z,12.50
2023-03-29T19:22:00.688Z,12.50
2023-03-29T19:26:08.800Z,12.40
2023-03-29T19:30:15.820Z,12.40
2023-03-29T19:34:24.233Z,12.30
2023-03-29T19:38:30.882Z,12.30
2023-03-29T19:42:41.082Z,12.20
2023-03-29T19:46:47.775Z,12.20
2023-03-29T19:50:54.436Z,12.10
2023-03-29T19:55:01.341Z,12.10
2023-03-29T19:59:10.902Z,12.10
2023-03-29T20:03:17.845Z,12.00
2023-03-29T20:07:24.783Z,12.10
2023-03-29T20:11:31.453Z,12.10
2023-03-29T20:15:38.150Z,12.10
2023-03-29T20:19:44.905Z,12.10
2023-03-29T20:23:51.779Z,12.10
2023-03-29T20:27:59.597Z,12.10
2023-03-29T20:32:06.480Z,12.10
2023-03-29T20:36:13.590Z,12.00
2023-03-29T20:40:20.931Z,12.00
2023-03-29T20:44:28.371Z,12.10
2023-03-29T20:48:38.203Z,12.20
2023-03-29T20:52:45.250Z,12.20
2023-03-29T20:56:54.438Z,12.20
2023-03-29T21:01:01.283Z,12.30
2023-03-29T21:05:08.612Z,12.30
2023-03-29T21:09:21.042Z,12.40
2023-03-29T21:13:28.038Z,12.50
2023-03-29T21:17:34.823Z,12.60
2023-03-29T21:21:45.076Z,12.60
2023-03-29T21:25:51.918Z,12.60
2023-03-29T21:29:58.719Z,12.60
2023-03-29T21:34:05.411Z,12.70
2023-03-29T21:38:12.063Z,12.70
2023-03-29T21:42:18.887Z,12.80
2023-03-29T21:46:26.296Z,12.80
2023-03-29T21:50:34.289Z,12.90
2023-03-29T21:54:40.974Z,13.00
2023-03-29T21:58:47.656Z,13.00
2023-03-29T22:02:54.341Z,12.90
2023-03-29T22:07:02.719Z,12.90
2023-03-29T22:11:13.764Z,12.90
2023-03-29T22:15:23.479Z,12.80
2023-03-29T22:19:30.114Z,12.70
2023-03-29T22:23:37.063Z,12.70
2023-03-29T22:27:45.517Z,12.70
2023-03-29T22:31:52.342Z,12.60
2023-03-29T22:35:59.579Z,12.60
2023-03-29T22:40:09.406Z,12.70
2023-03-29T22:44:16.210Z,12.80
2023-03-29T22:48:23.017Z,12.70
2023-03-29T22:52:29.715Z,12.70
2023-03-29T22:56:36.379Z,12.70
2023-03-29T23:00:43.097Z,12.60
2023-03-29T23:04:49.917Z,12.60
2023-03-29T23:08:56.647Z,12.60
2023-03-29T23:13:09.618Z,12.60
2023-03-29T23:17:19.288Z,12.60
2023-03-29T23:21:27.848Z,12.50
2023-03-29T23:25:35.189Z,12.50
2023-03-29T23:29:42.317Z,12.50
2023-03-29T23:33:49.381Z,12.50
2023-03-29T23:37:56.499Z,12.50
2023-03-29T23:42:03.530Z,12.40
2023-03-29T23:46:13.493Z,12.40
2023-03-29T23:50:22.549Z,13.30
2023-03-29T23:54:29.411Z,12.50
2023-03-29T23:58:37.753Z,12.50
